Terminal Aerodrome Forecast
Issued by NWS Northern Indiana

Home | Current Version | Previous Version | Graphics & Text | Print | Product List | Glossary On
Versions: 1 2 3 4 5 6 7 8 9 10 11 12 13 14 15 16 17 18 19 20
000
FTUS43 KIWX 192000 AAA
TAFFWA
TAF AMD
KFWA 192045Z 1921/2018 22012G18KT 6SM -TSRA BKN040CB
      TEMPO 1921/1923 24015G30KT 3SM TSRA BKN030CB
     FM192300 24008KT P6SM BKN045
     FM200200 22005KT P6SM SCT050
     FM200700 23005KT 4SM BR SCT025
     FM201400 27010KT P6SM SCT030=

USA.gov is the U.S. government's official web portal to all federal, state and local government web resources and services.